createdAt,value
2022-12-19T00:00:44.607Z,5.71
2022-12-19T00:03:12.811Z,5.72
2022-12-19T00:05:41.988Z,5.70
2022-12-19T00:08:18.161Z,5.65
2022-12-19T00:10:56.618Z,5.64
2022-12-19T00:13:25.462Z,5.63
2022-12-19T00:15:53.656Z,5.68
2022-12-19T00:18:22.466Z,5.78
2022-12-19T00:20:58.484Z,5.81
2022-12-19T00:23:27.345Z,5.79
2022-12-19T00:25:56.810Z,5.80
2022-12-19T00:28:24.957Z,5.79
2022-12-19T00:30:55.188Z,5.80
2022-12-19T00:33:24.472Z,5.75
2022-12-19T00:35:52.487Z,5.70
2022-12-19T00:38:20.704Z,5.74
2022-12-19T00:40:48.823Z,5.73
2022-12-19T00:43:18.278Z,5.72
2022-12-19T00:45:46.463Z,5.68
2022-12-19T00:48:14.729Z,5.59
2022-12-19T00:50:45.645Z,5.51
2022-12-19T00:53:13.848Z,5.52
2022-12-19T00:55:41.905Z,5.52
2022-12-19T00:58:09.907Z,5.52
2022-12-19T01:00:39.581Z,5.59
2022-12-19T01:03:10.325Z,5.65
2022-12-19T01:05:42.031Z,5.71
2022-12-19T01:08:10.309Z,5.71
2022-12-19T01:10:38.530Z,5.69
2022-12-19T01:13:05.640Z,5.68
2022-12-19T01:15:33.697Z,5.67
2022-12-19T01:18:03.607Z,5.73
2022-12-19T01:20:31.785Z,5.84
2022-12-19T01:23:00.820Z,5.93
2022-12-19T01:25:29.463Z,5.90
2022-12-19T01:27:58.312Z,5.97
2022-12-19T01:30:27.624Z,6.06
2022-12-19T01:32:58.411Z,6.13
2022-12-19T01:35:28.069Z,6.19
2022-12-19T01:38:07.638Z,6.15
2022-12-19T01:40:38.956Z,6.02
2022-12-19T01:43:07.510Z,5.97
2022-12-19T01:45:42.130Z,5.96
2022-12-19T01:48:21.669Z,6.03
2022-12-19T01:51:02.098Z,6.07
2022-12-19T01:53:37.317Z,6.09
2022-12-19T01:56:18.773Z,6.04
2022-12-19T01:58:47.790Z,5.96
2022-12-19T02:01:18.387Z,5.90
2022-12-19T02:03:47.201Z,5.85
2022-12-19T02:06:16.728Z,5.76
2022-12-19T02:08:47.565Z,5.68
2022-12-19T02:11:15.744Z,5.74
2022-12-19T02:13:45.865Z,5.87
2022-12-19T02:16:25.392Z,5.99
2022-12-19T02:19:05.625Z,6.09
2022-12-19T02:21:54.611Z,6.17
2022-12-19T02:24:49.755Z,6.22
2022-12-19T02:27:44.797Z,6.27
2022-12-19T02:30:15.588Z,6.27
2022-12-19T02:32:52.152Z,6.22
2022-12-19T02:35:27.599Z,6.15
2022-12-19T02:38:08.430Z,6.10
2022-12-19T02:40:43.644Z,6.00
2022-12-19T02:43:40.053Z,5.96
2022-12-19T02:46:08.894Z,5.93
2022-12-19T02:48:39.261Z,5.88
2022-12-19T02:51:07.616Z,5.86
2022-12-19T02:53:38.400Z,5.86
2022-12-19T02:56:26.134Z,5.91
2022-12-19T02:59:10.314Z,5.90
2022-12-19T03:01:46.932Z,5.88
2022-12-19T03:04:27.760Z,5.91
2022-12-19T03:07:01.854Z,5.89
2022-12-19T03:09:39.293Z,5.99
2022-12-19T03:12:17.366Z,6.12
2022-12-19T03:14:47.306Z,6.14
2022-12-19T03:17:16.095Z,6.11
2022-12-19T03:19:46.038Z,6.12
2022-12-19T03:22:14.233Z,6.21
2022-12-19T03:24:42.424Z,6.28
2022-12-19T03:27:13.976Z,6.21
2022-12-19T03:29:46.786Z,6.10
2022-12-19T03:32:16.597Z,6.00
2022-12-19T03:34:49.256Z,5.95
2022-12-19T03:37:21.189Z,5.91
2022-12-19T03:39:53.454Z,5.90
2022-12-19T03:42:42.207Z,5.90
2022-12-19T03:45:12.728Z,5.84
2022-12-19T03:47:43.460Z,5.83
2022-12-19T03:50:13.232Z,5.80
2022-12-19T03:52:49.551Z,5.78
2022-12-19T03:55:20.501Z,5.79
2022-12-19T03:57:54.770Z,5.83
2022-12-19T04:00:25.402Z,5.90
2022-12-19T04:02:57.083Z,5.97
2022-12-19T04:05:28.804Z,6.01
2022-12-19T04:07:59.814Z,6.03
2022-12-19T04:10:29.614Z,6.15
2022-12-19T04:13:01.517Z,6.27
2022-12-19T04:15:35.977Z,6.32
2022-12-19T04:18:08.368Z,6.29
2022-12-19T04:20:39.757Z,6.32
2022-12-19T04:23:12.879Z,6.36
2022-12-19T04:25:44.032Z,6.42
2022-12-19T04:28:16.388Z,6.37
2022-12-19T04:30:46.214Z,6.31
2022-12-19T04:33:14.267Z,6.24
2022-12-19T04:35:43.860Z,6.19
2022-12-19T04:38:12.101Z,6.18
2022-12-19T04:40:41.718Z,6.21
2022-12-19T04:43:10.611Z,6.25
2022-12-19T04:45:38.878Z,6.32
2022-12-19T04:48:08.127Z,6.34
2022-12-19T04:50:37.471Z,6.41
2022-12-19T04:53:07.636Z,6.53
2022-12-19T04:55:36.323Z,6.68
2022-12-19T04:58:06.299Z,6.69
2022-12-19T05:00:34.853Z,6.58
2022-12-19T05:03:03.044Z,6.55
2022-12-19T05:05:31.149Z,6.54
2022-12-19T05:07:59.361Z,6.56
2022-12-19T05:10:28.881Z,6.55
2022-12-19T05:12:56.844Z,6.55
2022-12-19T05:15:24.910Z,6.54
2022-12-19T05:17:53.117Z,6.58
2022-12-19T05:20:21.280Z,6.65
2022-12-19T05:22:49.248Z,6.65
2022-12-19T05:25:17.354Z,6.67
2022-12-19T05:27:46.793Z,6.67
2022-12-19T05:30:15.248Z,6.66
2022-12-19T05:32:43.230Z,6.60
2022-12-19T05:35:11.224Z,6.54
2022-12-19T05:37:39.274Z,6.47
2022-12-19T05:40:08.723Z,6.34
2022-12-19T05:42:36.657Z,6.22
2022-12-19T05:45:06.777Z,6.08
2022-12-19T05:47:34.869Z,6.00
2022-12-19T05:50:03.269Z,5.96
2022-12-19T05:52:31.351Z,5.90
2022-12-19T05:54:59.336Z,5.84
2022-12-19T05:57:27.390Z,5.83
2022-12-19T05:59:55.345Z,5.80
2022-12-19T06:02:24.963Z,5.76
2022-12-19T06:04:53.490Z,5.71
2022-12-19T06:07:21.578Z,5.63
2022-12-19T06:09:49.654Z,5.53
2022-12-19T06:12:17.815Z,5.44
2022-12-19T06:14:45.843Z,5.40
2022-12-19T06:17:13.854Z,5.40
2022-12-19T06:19:43.369Z,5.43
2022-12-19T06:22:11.373Z,5.41
2022-12-19T06:24:39.598Z,5.41
2022-12-19T06:27:07.768Z,5.42
2022-12-19T06:29:35.971Z,5.38
2022-12-19T06:32:04.239Z,5.32
2022-12-19T06:35:02.606Z,5.28
2022-12-19T06:37:21.715Z,5.22
2022-12-19T06:39:51.862Z,5.16
2022-12-19T06:42:25.013Z,5.08
2022-12-19T06:44:54.364Z,5.05
2022-12-19T06:47:24.848Z,5.09
2022-12-19T06:49:52.886Z,5.09
2022-12-19T06:52:22.453Z,5.06
2022-12-19T06:54:50.580Z,5.03
2022-12-19T06:57:18.690Z,5.03
2022-12-19T06:59:46.712Z,5.02
2022-12-19T07:02:26.561Z,4.99
2022-12-19T07:05:01.841Z,5.01
2022-12-19T07:07:31.898Z,4.99
2022-12-19T07:10:00.222Z,5.00
2022-12-19T07:12:28.264Z,4.98
2022-12-19T07:14:56.361Z,4.97
2022-12-19T07:17:26.878Z,4.97
2022-12-19T07:19:56.871Z,4.99
2022-12-19T07:22:25.986Z,4.96
2022-12-19T07:24:56.198Z,4.98
2022-12-19T07:27:25.105Z,5.00
2022-12-19T07:29:55.750Z,4.94
2022-12-19T07:32:24.036Z,4.93
2022-12-19T07:34:54.849Z,4.88
2022-12-19T07:37:22.934Z,4.86
2022-12-19T07:39:52.620Z,4.82
2022-12-19T07:42:22.155Z,4.83
2022-12-19T07:44:50.256Z,4.83
2022-12-19T07:47:18.481Z,4.84
2022-12-19T07:49:46.547Z,4.86
2022-12-19T07:52:14.596Z,4.88
2022-12-19T07:54:42.737Z,4.93
2022-12-19T07:57:10.753Z,5.04
2022-12-19T07:59:40.162Z,5.15
2022-12-19T08:02:08.500Z,5.21
2022-12-19T08:04:36.619Z,5.27
2022-12-19T08:07:04.971Z,5.39
2022-12-19T08:09:33.219Z,5.51
2022-12-19T08:12:01.311Z,5.58
2022-12-19T08:14:29.535Z,5.61
2022-12-19T08:19:47.118Z,5.78
2022-12-19T08:22:15.220Z,5.84
2022-12-19T08:24:43.273Z,5.90
2022-12-19T08:27:11.872Z,5.95
2022-12-19T08:29:39.925Z,5.99
2022-12-19T08:32:09.496Z,6.07
2022-12-19T08:34:37.612Z,6.13
2022-12-19T08:37:05.607Z,6.28
2022-12-19T08:39:33.893Z,6.46
2022-12-19T08:42:02.910Z,6.61
2022-12-19T08:44:31.008Z,6.77
2022-12-19T08:46:58.993Z,6.91
2022-12-19T08:49:28.656Z,7.02
2022-12-19T08:51:56.755Z,7.10
2022-12-19T08:54:24.850Z,7.13
2022-12-19T08:56:52.881Z,7.18
2022-12-19T08:59:25.972Z,7.22
2022-12-19T09:02:00.618Z,7.32
2022-12-19T09:05:10.791Z,7.42
2022-12-19T09:07:18.905Z,7.58
2022-12-19T09:09:46.927Z,7.71
2022-12-19T09:12:16.180Z,7.88
2022-12-19T09:14:45.385Z,8.06
2022-12-19T09:17:13.663Z,8.17
2022-12-19T09:19:47.387Z,8.31
2022-12-19T09:22:16.432Z,8.41
2022-12-19T09:24:44.636Z,8.45
2022-12-19T09:27:12.641Z,8.44
2022-12-19T09:29:42.577Z,8.40
2022-12-19T09:32:10.653Z,8.43
2022-12-19T09:34:39.191Z,8.43
2022-12-19T09:37:15.968Z,8.28
2022-12-19T09:39:46.542Z,8.16
2022-12-19T09:42:56.387Z,8.19
2022-12-19T09:45:40.457Z,8.36
2022-12-19T09:48:17.789Z,8.49
2022-12-19T09:51:10.667Z,8.64
2022-12-19T09:53:54.889Z,8.75
2022-12-19T09:56:24.858Z,8.81
2022-12-19T09:58:57.239Z,8.76
2022-12-19T10:01:30.766Z,8.77
2022-12-19T10:04:04.624Z,8.69
2022-12-19T10:07:16.033Z,8.64
2022-12-19T10:12:10.703Z,8.66
2022-12-19T10:12:44.876Z,8.77
2022-12-19T10:15:27.470Z,8.94
2022-12-19T10:18:15.526Z,9.10
2022-12-19T10:20:51.450Z,9.25
2022-12-19T10:23:57.477Z,9.40
2022-12-19T10:26:31.432Z,9.46
2022-12-19T10:29:17.679Z,9.31
2022-12-19T10:31:55.104Z,9.22
2022-12-19T10:34:25.355Z,9.11
2022-12-19T10:37:26.946Z,8.99
2022-12-19T10:39:55.778Z,8.72
2022-12-19T10:42:34.747Z,8.52
2022-12-19T10:45:06.445Z,8.41
2022-12-19T10:47:34.708Z,8.43
2022-12-19T10:50:09.232Z,8.44
2022-12-19T10:52:55.077Z,8.46
2022-12-19T10:55:30.405Z,8.49
2022-12-19T10:58:02.631Z,8.56
2022-12-19T11:00:33.082Z,8.64
2022-12-19T11:03:19.226Z,8.76
2022-12-19T11:05:52.616Z,8.93
2022-12-19T11:08:28.354Z,9.01
2022-12-19T11:12:51.140Z,9.07
2022-12-19T11:18:44.271Z,9.17
2022-12-19T11:21:49.864Z,9.28
2022-12-19T11:29:29.802Z,9.42
2022-12-19T11:29:33.803Z,9.53
2022-12-19T11:29:42.226Z,9.59
2022-12-19T11:30:37.984Z,9.58
2022-12-19T11:33:55.584Z,9.80
2022-12-19T11:36:32.621Z,10.01
2022-12-19T11:39:01.065Z,10.10
2022-12-19T11:41:40.441Z,10.15
2022-12-19T11:44:19.768Z,10.31
2022-12-19T11:46:58.200Z,10.42
2022-12-19T11:49:31.547Z,10.48
2022-12-19T11:52:54.047Z,10.55
2022-12-19T11:55:17.940Z,10.52
2022-12-19T11:57:47.144Z,10.46
2022-12-19T12:00:20.518Z,10.33
2022-12-19T12:03:19.178Z,10.37
2022-12-19T12:05:48.686Z,10.51
2022-12-19T12:12:10.473Z,10.67
2022-12-19T12:14:49.792Z,10.75
2022-12-19T12:20:23.593Z,10.82
2022-12-19T12:31:00.904Z,10.93
2022-12-19T12:31:30.604Z,10.95
2022-12-19T12:31:46.584Z,11.15
2022-12-19T12:31:56.046Z,11.07
2022-12-19T12:32:05.070Z,11.00
2022-12-19T12:35:43.566Z,11.17
2022-12-19T12:38:43.279Z,11.20
2022-12-19T12:41:45.250Z,11.21
2022-12-19T12:44:14.486Z,11.11
2022-12-19T12:46:48.047Z,11.00
2022-12-19T12:49:34.521Z,10.90
2022-12-19T12:52:04.468Z,10.88
2022-12-19T12:54:39.129Z,10.87
2022-12-19T12:57:07.416Z,10.87
2022-12-19T12:59:35.481Z,10.82
2022-12-19T13:02:18.222Z,10.88
2022-12-19T13:04:56.920Z,10.95
2022-12-19T13:07:42.558Z,11.01
2022-12-19T13:10:25.806Z,11.08
2022-12-19T13:13:02.529Z,11.07
2022-12-19T13:15:39.323Z,11.03
2022-12-19T13:18:33.659Z,11.03
2022-12-19T13:21:04.360Z,11.07
2022-12-19T13:23:47.622Z,11.09
2022-12-19T13:26:46.926Z,11.13
2022-12-19T13:29:54.491Z,11.15
2022-12-19T13:32:24.141Z,11.12
2022-12-19T13:34:57.540Z,11.08
2022-12-19T13:39:56.781Z,11.02
2022-12-19T13:40:35.387Z,10.99
2022-12-19T13:43:34.130Z,10.95
2022-12-19T13:46:04.234Z,10.86
2022-12-19T13:48:36.541Z,10.77
2022-12-19T13:51:07.507Z,10.73
2022-12-19T13:53:36.968Z,10.71
2022-12-19T13:56:07.109Z,10.70
2022-12-19T13:58:46.402Z,10.66
2022-12-19T14:01:21.540Z,10.68
2022-12-19T14:03:52.854Z,10.73
2022-12-19T14:06:23.640Z,10.78
2022-12-19T14:09:41.469Z,10.84
2022-12-19T14:13:45.960Z,10.83
2022-12-19T14:15:12.958Z,10.87
2022-12-19T14:17:42.408Z,10.87
2022-12-19T14:22:06.687Z,10.85
2022-12-19T14:23:07.949Z,10.86
2022-12-19T14:28:17.528Z,10.85
2022-12-19T14:28:39.343Z,10.81
2022-12-19T14:31:14.271Z,10.79
2022-12-19T14:34:11.115Z,10.76
2022-12-19T14:36:35.811Z,10.76
2022-12-19T14:39:26.900Z,10.75
2022-12-19T14:42:11.802Z,10.71
2022-12-19T14:52:08.673Z,10.70
2022-12-19T14:54:18.173Z,10.72
2022-12-19T14:54:20.953Z,10.73
2022-12-19T14:54:41.913Z,10.72
2022-12-19T14:56:26.780Z,10.72
2022-12-19T14:59:00.663Z,10.72
2022-12-19T15:01:30.822Z,10.68
2022-12-19T15:04:50.456Z,10.63
2022-12-19T15:07:08.388Z,10.57
2022-12-19T15:11:08.740Z,10.49
2022-12-19T15:14:50.871Z,10.43
2022-12-19T15:15:56.576Z,10.32
2022-12-19T15:18:28.077Z,10.27
2022-12-19T15:20:59.328Z,10.20
2022-12-19T15:23:28.277Z,10.10
2022-12-19T15:26:06.001Z,10.02
2022-12-19T15:28:40.124Z,9.83
2022-12-19T15:31:19.664Z,9.72
2022-12-19T15:34:23.185Z,9.67
2022-12-19T15:36:37.432Z,9.65
2022-12-19T15:39:05.909Z,9.60
2022-12-19T15:41:34.036Z,9.50
2022-12-19T15:44:09.906Z,9.45
2022-12-19T15:46:44.590Z,9.48
2022-12-19T15:49:17.698Z,9.46
2022-12-19T15:51:47.592Z,9.48
2022-12-19T15:57:04.650Z,9.41
2022-12-19T15:59:37.470Z,9.40
2022-12-19T16:02:16.861Z,9.36
2022-12-19T16:04:46.732Z,9.33
2022-12-19T16:07:18.731Z,9.29
2022-12-19T16:09:47.380Z,9.22
2022-12-19T16:12:18.045Z,9.15
2022-12-19T16:14:48.639Z,8.98
2022-12-19T16:17:21.977Z,8.89
2022-12-19T16:19:50.494Z,8.81
2022-12-19T16:22:22.553Z,8.77
2022-12-19T16:24:51.456Z,8.72
2022-12-19T16:27:24.998Z,8.66
2022-12-19T16:29:54.046Z,8.52
2022-12-19T16:32:24.158Z,8.36
2022-12-19T16:34:52.879Z,8.23
2022-12-19T16:37:27.207Z,8.11
2022-12-19T16:39:56.812Z,7.99
2022-12-19T16:42:25.016Z,7.93
2022-12-19T16:44:53.662Z,7.83
2022-12-19T16:47:21.796Z,7.80
2022-12-19T16:49:50.197Z,7.80
2022-12-19T16:52:18.326Z,7.84
2022-12-19T16:54:47.771Z,7.87
2022-12-19T16:57:21.002Z,7.97
2022-12-19T16:59:49.927Z,8.10
2022-12-19T17:02:43.000Z,8.18
2022-12-19T17:05:20.196Z,8.21
2022-12-19T17:07:49.454Z,8.16
2022-12-19T17:10:25.941Z,8.11
2022-12-19T17:12:55.816Z,7.94
2022-12-19T17:15:28.567Z,7.75
2022-12-19T17:17:59.346Z,7.61
2022-12-19T17:20:33.313Z,7.49
2022-12-19T17:23:01.515Z,7.39
2022-12-19T17:25:31.974Z,7.30
2022-12-19T17:27:59.965Z,7.24
2022-12-19T17:30:28.182Z,7.18
2022-12-19T17:32:57.201Z,7.10
2022-12-19T17:35:28.437Z,7.02
2022-12-19T17:37:58.057Z,6.96
2022-12-19T17:40:28.101Z,6.93
2022-12-19T17:42:57.858Z,6.87
2022-12-19T17:45:26.854Z,6.84
2022-12-19T17:48:02.245Z,6.79
2022-12-19T17:50:33.198Z,6.68
2022-12-19T17:53:01.300Z,6.70
2022-12-19T17:55:30.988Z,6.73
2022-12-19T17:58:00.588Z,6.74
2022-12-19T18:00:31.081Z,6.74
2022-12-19T18:03:02.954Z,6.71
2022-12-19T18:05:35.916Z,6.68
2022-12-19T18:08:04.937Z,6.67
2022-12-19T18:10:33.512Z,6.64
2022-12-19T18:13:02.967Z,6.63
2022-12-19T18:15:31.165Z,6.65
2022-12-19T18:18:00.149Z,6.66
2022-12-19T18:20:32.194Z,6.64
2022-12-19T18:23:01.496Z,6.71
2022-12-19T18:25:32.078Z,6.71
2022-12-19T18:28:00.278Z,6.73
2022-12-19T18:30:29.772Z,6.75
2022-12-19T18:32:59.475Z,6.72
2022-12-19T18:35:37.469Z,6.70
2022-12-19T18:38:08.695Z,6.74
2022-12-19T18:40:37.062Z,6.82
2022-12-19T18:43:05.788Z,6.88
2022-12-19T18:45:37.343Z,6.94
2022-12-19T18:48:09.128Z,6.99
2022-12-19T18:50:37.244Z,7.00
2022-12-19T18:53:12.003Z,7.06
2022-12-19T18:55:40.105Z,7.03
2022-12-19T18:58:08.295Z,7.19
2022-12-19T19:00:39.961Z,7.23
2022-12-19T19:03:14.817Z,7.21
2022-12-19T19:05:43.588Z,7.14
2022-12-19T19:08:18.587Z,7.14
2022-12-19T19:10:48.887Z,7.16
2022-12-19T19:13:18.637Z,7.17
2022-12-19T19:15:51.520Z,7.30
2022-12-19T19:18:23.638Z,7.36
2022-12-19T19:21:00.492Z,7.44
2022-12-19T19:23:34.834Z,7.42
2022-12-19T19:26:03.097Z,7.32
2022-12-19T19:28:31.242Z,7.22
2022-12-19T19:31:02.286Z,7.11
2022-12-19T19:33:33.850Z,7.17
2022-12-19T19:36:11.959Z,7.28
2022-12-19T19:38:44.142Z,7.35
2022-12-19T19:41:12.748Z,7.38
2022-12-19T19:43:41.401Z,7.33
2022-12-19T19:46:11.131Z,7.24
2022-12-19T19:48:41.433Z,7.20
2022-12-19T19:51:25.535Z,7.19
2022-12-19T19:53:53.771Z,7.10
2022-12-19T19:56:21.978Z,7.20
2022-12-19T19:58:50.196Z,7.21
2022-12-19T20:01:18.567Z,7.12
2022-12-19T20:03:47.108Z,7.01
2022-12-19T20:06:15.427Z,7.01
2022-12-19T20:08:44.995Z,6.82
2022-12-19T20:11:13.904Z,7.03
2022-12-19T20:13:42.085Z,7.00
2022-12-19T20:16:12.485Z,7.02
2022-12-19T20:18:41.744Z,6.93
2022-12-19T20:21:13.191Z,6.88
2022-12-19T20:23:42.832Z,6.83
2022-12-19T20:26:13.380Z,6.70
2022-12-19T20:28:48.471Z,6.71
2022-12-19T20:31:17.423Z,6.94
2022-12-19T20:33:46.438Z,6.91
2022-12-19T20:36:15.521Z,6.97
2022-12-19T20:38:44.045Z,6.99
2022-12-19T20:41:13.696Z,7.03
2022-12-19T20:43:42.323Z,7.14
2022-12-19T20:46:13.000Z,6.95
2022-12-19T20:48:42.081Z,6.84
2022-12-19T20:51:11.058Z,6.74
2022-12-19T20:53:41.664Z,6.55
2022-12-19T20:56:12.511Z,6.35
2022-12-19T20:58:42.834Z,6.14
2022-12-19T21:01:13.942Z,6.07
2022-12-19T21:03:44.053Z,5.88
2022-12-19T21:06:14.324Z,5.86
2022-12-19T21:08:43.347Z,5.82
2022-12-19T21:11:12.677Z,5.89
2022-12-19T21:13:43.822Z,5.86
2022-12-19T21:16:14.642Z,5.71
2022-12-19T21:18:45.300Z,5.69
2022-12-19T21:21:16.397Z,5.58
2022-12-19T21:23:45.618Z,5.50
2022-12-19T21:26:14.515Z,5.65
2022-12-19T21:28:44.804Z,5.59
2022-12-19T21:31:17.568Z,5.71
2022-12-19T21:33:47.382Z,5.80
2022-12-19T21:36:19.237Z,5.70
2022-12-19T21:38:48.455Z,5.87
2022-12-19T21:41:19.489Z,5.96
2022-12-19T21:43:52.555Z,5.94
2022-12-19T21:46:22.852Z,5.99
2022-12-19T21:48:52.503Z,6.11
2022-12-19T21:51:22.275Z,6.16
2022-12-19T21:53:54.596Z,6.12
2022-12-19T21:56:26.034Z,6.17
2022-12-19T21:58:57.536Z,6.00
2022-12-19T22:01:26.598Z,5.95
2022-12-19T22:03:59.972Z,5.98
2022-12-19T22:06:30.973Z,5.79
2022-12-19T22:08:59.750Z,5.74
2022-12-19T22:11:29.779Z,5.73
2022-12-19T22:14:00.568Z,5.65
2022-12-19T22:16:29.376Z,5.82
2022-12-19T22:18:57.726Z,5.80
2022-12-19T22:21:26.520Z,5.75
2022-12-19T22:23:58.921Z,5.76
2022-12-19T22:26:28.973Z,5.73
2022-12-19T22:28:59.794Z,5.64
2022-12-19T22:31:30.127Z,5.54
2022-12-19T22:34:00.269Z,5.43
2022-12-19T22:36:29.865Z,5.41
2022-12-19T22:38:59.572Z,5.46
2022-12-19T22:41:28.347Z,5.45
2022-12-19T22:43:58.702Z,5.34
2022-12-19T22:46:30.834Z,5.48
2022-12-19T22:49:01.275Z,5.37
2022-12-19T22:51:31.458Z,5.40
2022-12-19T22:54:01.880Z,5.22
2022-12-19T22:56:32.586Z,5.18
2022-12-19T22:59:04.773Z,5.11
2022-12-19T23:01:35.156Z,5.28
2022-12-19T23:04:04.170Z,5.37
2022-12-19T23:06:34.799Z,5.30
2022-12-19T23:09:03.777Z,5.26
2022-12-19T23:11:34.221Z,5.28
2022-12-19T23:14:05.511Z,5.15
2022-12-19T23:16:33.974Z,5.14
2022-12-19T23:19:02.287Z,5.14
2022-12-19T23:21:30.471Z,5.27
2022-12-19T23:23:58.690Z,5.18
2022-12-19T23:26:29.316Z,5.12
2022-12-19T23:29:00.091Z,4.99
2022-12-19T23:31:30.996Z,5.00
2022-12-19T23:33:59.890Z,4.92
2022-12-19T23:37:08.418Z,4.81
2022-12-19T23:39:17.136Z,4.74
2022-12-19T23:41:45.566Z,4.63
2022-12-19T23:44:14.197Z,4.63
2022-12-19T23:46:43.790Z,4.72
2022-12-19T23:49:12.161Z,4.72
2022-12-19T23:51:40.508Z,4.66
2022-12-19T23:54:09.220Z,4.71
2022-12-19T23:56:37.607Z,4.76
2022-12-19T23:59:05.863Z,4.77
